sensor_id;sensor_type;location;lat;lon;timestamp;P1;durP1;ratioP1;P2;durP2;ratioP2
3953;SDS011;1991;48.682;9.030;2024-02-23T00:01:49;0.10;;;0.00;;
3953;SDS011;1991;48.682;9.030;2024-02-23T00:04:14;0.20;;;0.00;;
3953;SDS011;1991;48.682;9.030;2024-02-23T00:06:41;0.20;;;0.00;;
3953;SDS011;1991;48.682;9.030;2024-02-23T00:09:06;0.27;;;0.10;;
3953;SDS011;1991;48.682;9.030;2024-02-23T00:11:32;0.20;;;0.10;;
3953;SDS011;1991;48.682;9.030;2024-02-23T00:13:58;1.30;;;0.10;;
3953;SDS011;1991;48.682;9.030;2024-02-23T00:16:24;0.20;;;0.10;;
3953;SDS011;1991;48.682;9.030;2024-02-23T00:18:51;0.10;;;0.00;;
3953;SDS011;1991;48.682;9.030;2024-02-23T00:21:17;0.10;;;0.00;;
3953;SDS011;1991;48.682;9.030;2024-02-23T00:23:43;1.10;;;0.10;;
3953;SDS011;1991;48.682;9.030;2024-02-23T00:26:08;0.00;;;0.00;;
3953;SDS011;1991;48.682;9.030;2024-02-23T00:28:34;0.83;;;0.10;;
3953;SDS011;1991;48.682;9.030;2024-02-23T00:31:00;0.17;;;0.17;;
3953;SDS011;1991;48.682;9.030;2024-02-23T00:33:25;0.97;;;0.20;;
3953;SDS011;1991;48.682;9.030;2024-02-23T00:35:51;0.10;;;0.00;;
3953;SDS011;1991;48.682;9.030;2024-02-23T00:38:17;0.77;;;0.10;;
3953;SDS011;1991;48.682;9.030;2024-02-23T00:40:42;1.53;;;0.30;;
3953;SDS011;1991;48.682;9.030;2024-02-23T00:43:08;0.03;;;0.00;;
3953;SDS011;1991;48.682;9.030;2024-02-23T00:45:33;0.20;;;0.03;;
3953;SDS011;1991;48.682;9.030;2024-02-23T00:47:59;0.60;;;0.20;;
3953;SDS011;1991;48.682;9.030;2024-02-23T00:50:25;1.27;;;0.30;;
3953;SDS011;1991;48.682;9.030;2024-02-23T00:52:52;0.93;;;0.40;;
3953;SDS011;1991;48.682;9.030;2024-02-23T00:55:18;1.03;;;0.20;;
3953;SDS011;1991;48.682;9.030;2024-02-23T00:57:44;2.53;;;0.20;;
3953;SDS011;1991;48.682;9.030;2024-02-23T01:00:10;3.63;;;0.50;;
3953;SDS011;1991;48.682;9.030;2024-02-23T01:02:36;1.33;;;0.20;;
3953;SDS011;1991;48.682;9.030;2024-02-23T01:05:03;1.90;;;0.30;;
3953;SDS011;1991;48.682;9.030;2024-02-23T01:07:29;2.00;;;0.30;;
3953;SDS011;1991;48.682;9.030;2024-02-23T01:09:54;0.47;;;0.10;;
3953;SDS011;1991;48.682;9.030;2024-02-23T01:12:20;2.23;;;0.40;;
3953;SDS011;1991;48.682;9.030;2024-02-23T01:14:45;2.97;;;0.30;;
3953;SDS011;1991;48.682;9.030;2024-02-23T01:17:13;0.53;;;0.20;;
3953;SDS011;1991;48.682;9.030;2024-02-23T01:19:40;1.73;;;0.30;;
3953;SDS011;1991;48.682;9.030;2024-02-23T01:22:06;1.03;;;0.30;;
3953;SDS011;1991;48.682;9.030;2024-02-23T01:24:32;1.40;;;0.50;;
3953;SDS011;1991;48.682;9.030;2024-02-23T01:26:58;1.93;;;0.33;;
3953;SDS011;1991;48.682;9.030;2024-02-23T01:29:24;2.63;;;0.30;;
3953;SDS011;1991;48.682;9.030;2024-02-23T01:31:51;1.93;;;0.30;;
3953;SDS011;1991;48.682;9.030;2024-02-23T01:34:19;2.37;;;0.40;;
3953;SDS011;1991;48.682;9.030;2024-02-23T01:36:45;1.40;;;0.40;;
3953;SDS011;1991;48.682;9.030;2024-02-23T01:39:10;2.37;;;0.30;;
3953;SDS011;1991;48.682;9.030;2024-02-23T01:41:36;1.20;;;0.20;;
3953;SDS011;1991;48.682;9.030;2024-02-23T01:44:01;1.63;;;0.40;;
3953;SDS011;1991;48.682;9.030;2024-02-23T01:46:27;1.50;;;0.30;;
3953;SDS011;1991;48.682;9.030;2024-02-23T01:48:53;3.13;;;0.30;;
3953;SDS011;1991;48.682;9.030;2024-02-23T01:51:19;3.03;;;0.70;;
3953;SDS011;1991;48.682;9.030;2024-02-23T01:53:45;3.27;;;0.50;;
3953;SDS011;1991;48.682;9.030;2024-02-23T01:56:11;1.97;;;0.53;;
3953;SDS011;1991;48.682;9.030;2024-02-23T01:58:42;1.27;;;0.70;;
3953;SDS011;1991;48.682;9.030;2024-02-23T02:01:08;2.23;;;0.43;;
3953;SDS011;1991;48.682;9.030;2024-02-23T02:03:34;2.43;;;0.67;;
3953;SDS011;1991;48.682;9.030;2024-02-23T02:06:00;1.80;;;0.30;;
3953;SDS011;1991;48.682;9.030;2024-02-23T02:08:26;1.13;;;0.30;;
3953;SDS011;1991;48.682;9.030;2024-02-23T02:10:52;2.53;;;0.23;;
3953;SDS011;1991;48.682;9.030;2024-02-23T02:13:18;3.73;;;0.40;;
3953;SDS011;1991;48.682;9.030;2024-02-23T02:15:43;1.70;;;0.33;;
3953;SDS011;1991;48.682;9.030;2024-02-23T02:18:09;0.83;;;0.27;;
3953;SDS011;1991;48.682;9.030;2024-02-23T02:20:35;3.37;;;0.47;;
3953;SDS011;1991;48.682;9.030;2024-02-23T02:23:02;0.67;;;0.20;;
3953;SDS011;1991;48.682;9.030;2024-02-23T02:25:28;2.10;;;0.30;;
3953;SDS011;1991;48.682;9.030;2024-02-23T02:27:53;2.30;;;0.33;;
3953;SDS011;1991;48.682;9.030;2024-02-23T02:30:19;1.73;;;0.20;;
3953;SDS011;1991;48.682;9.030;2024-02-23T02:32:45;1.80;;;0.50;;
3953;SDS011;1991;48.682;9.030;2024-02-23T02:35:11;1.90;;;0.30;;
3953;SDS011;1991;48.682;9.030;2024-02-23T02:37:37;1.63;;;0.33;;
3953;SDS011;1991;48.682;9.030;2024-02-23T02:40:03;2.20;;;0.30;;
3953;SDS011;1991;48.682;9.030;2024-02-23T02:42:29;0.83;;;0.23;;
3953;SDS011;1991;48.682;9.030;2024-02-23T02:44:55;0.20;;;0.13;;
3953;SDS011;1991;48.682;9.030;2024-02-23T02:47:20;1.30;;;0.30;;
3953;SDS011;1991;48.682;9.030;2024-02-23T02:49:46;2.83;;;0.40;;
3953;SDS011;1991;48.682;9.030;2024-02-23T02:52:12;2.60;;;0.23;;
3953;SDS011;1991;48.682;9.030;2024-02-23T02:54:38;1.13;;;0.40;;
3953;SDS011;1991;48.682;9.030;2024-02-23T02:57:03;1.80;;;0.27;;
3953;SDS011;1991;48.682;9.030;2024-02-23T02:59:29;2.57;;;0.30;;
3953;SDS011;1991;48.682;9.030;2024-02-23T03:01:54;1.43;;;0.23;;
3953;SDS011;1991;48.682;9.030;2024-02-23T03:04:22;1.37;;;0.43;;
3953;SDS011;1991;48.682;9.030;2024-02-23T03:06:47;1.23;;;0.20;;
3953;SDS011;1991;48.682;9.030;2024-02-23T03:09:13;1.87;;;0.40;;
3953;SDS011;1991;48.682;9.030;2024-02-23T03:11:38;3.60;;;0.40;;
3953;SDS011;1991;48.682;9.030;2024-02-23T03:14:04;0.97;;;0.30;;
3953;SDS011;1991;48.682;9.030;2024-02-23T03:16:29;0.67;;;0.20;;
3953;SDS011;1991;48.682;9.030;2024-02-23T03:18:56;1.00;;;0.20;;
3953;SDS011;1991;48.682;9.030;2024-02-23T03:21:22;1.50;;;0.30;;
3953;SDS011;1991;48.682;9.030;2024-02-23T03:23:47;3.73;;;0.37;;
3953;SDS011;1991;48.682;9.030;2024-02-23T03:26:13;1.50;;;0.40;;
3953;SDS011;1991;48.682;9.030;2024-02-23T03:28:41;2.40;;;0.30;;
3953;SDS011;1991;48.682;9.030;2024-02-23T03:31:07;2.90;;;0.30;;
3953;SDS011;1991;48.682;9.030;2024-02-23T03:33:33;2.30;;;0.43;;
3953;SDS011;1991;48.682;9.030;2024-02-23T03:35:58;1.50;;;0.30;;
3953;SDS011;1991;48.682;9.030;2024-02-23T03:38:24;3.13;;;0.33;;
3953;SDS011;1991;48.682;9.030;2024-02-23T03:40:50;3.57;;;0.47;;
3953;SDS011;1991;48.682;9.030;2024-02-23T03:43:15;1.10;;;0.33;;
3953;SDS011;1991;48.682;9.030;2024-02-23T03:45:41;1.03;;;0.40;;
3953;SDS011;1991;48.682;9.030;2024-02-23T03:48:06;2.50;;;0.50;;
3953;SDS011;1991;48.682;9.030;2024-02-23T03:50:32;1.73;;;0.30;;
3953;SDS011;1991;48.682;9.030;2024-02-23T03:52:58;1.03;;;0.33;;
3953;SDS011;1991;48.682;9.030;2024-02-23T03:55:23;1.27;;;0.37;;
3953;SDS011;1991;48.682;9.030;2024-02-23T03:57:49;1.27;;;0.30;;
3953;SDS011;1991;48.682;9.030;2024-02-23T04:00:14;2.53;;;0.47;;
3953;SDS011;1991;48.682;9.030;2024-02-23T04:02:40;2.17;;;0.27;;
3953;SDS011;1991;48.682;9.030;2024-02-23T04:05:06;0.20;;;0.20;;
3953;SDS011;1991;48.682;9.030;2024-02-23T04:07:32;1.90;;;0.50;;
3953;SDS011;1991;48.682;9.030;2024-02-23T04:09:57;3.10;;;0.60;;
3953;SDS011;1991;48.682;9.030;2024-02-23T04:12:23;2.17;;;0.40;;
3953;SDS011;1991;48.682;9.030;2024-02-23T04:14:49;1.27;;;0.30;;
3953;SDS011;1991;48.682;9.030;2024-02-23T04:17:15;4.87;;;0.40;;
3953;SDS011;1991;48.682;9.030;2024-02-23T04:19:41;1.20;;;0.27;;
3953;SDS011;1991;48.682;9.030;2024-02-23T04:22:08;1.90;;;0.30;;
3953;SDS011;1991;48.682;9.030;2024-02-23T04:24:35;1.20;;;0.20;;
3953;SDS011;1991;48.682;9.030;2024-02-23T04:27:03;2.20;;;0.30;;
3953;SDS011;1991;48.682;9.030;2024-02-23T04:29:29;1.20;;;0.33;;
3953;SDS011;1991;48.682;9.030;2024-02-23T04:31:55;3.10;;;0.43;;
3953;SDS011;1991;48.682;9.030;2024-02-23T04:34:20;2.57;;;0.33;;
3953;SDS011;1991;48.682;9.030;2024-02-23T04:36:46;1.40;;;0.33;;
3953;SDS011;1991;48.682;9.030;2024-02-23T04:39:11;2.30;;;0.40;;
3953;SDS011;1991;48.682;9.030;2024-02-23T04:41:37;2.17;;;0.30;;
3953;SDS011;1991;48.682;9.030;2024-02-23T04:44:03;1.53;;;0.20;;
3953;SDS011;1991;48.682;9.030;2024-02-23T04:46:28;3.73;;;0.77;;
3953;SDS011;1991;48.682;9.030;2024-02-23T04:48:55;2.00;;;0.40;;
3953;SDS011;1991;48.682;9.030;2024-02-23T04:51:21;2.00;;;0.43;;
3953;SDS011;1991;48.682;9.030;2024-02-23T04:53:48;0.30;;;0.13;;
3953;SDS011;1991;48.682;9.030;2024-02-23T04:56:14;4.40;;;0.43;;
3953;SDS011;1991;48.682;9.030;2024-02-23T04:58:40;2.60;;;0.47;;
3953;SDS011;1991;48.682;9.030;2024-02-23T05:01:07;2.27;;;0.50;;
3953;SDS011;1991;48.682;9.030;2024-02-23T05:03:33;2.80;;;1.40;;
3953;SDS011;1991;48.682;9.030;2024-02-23T05:05:59;4.47;;;1.20;;
3953;SDS011;1991;48.682;9.030;2024-02-23T05:08:24;2.90;;;1.20;;
3953;SDS011;1991;48.682;9.030;2024-02-23T05:10:52;4.50;;;1.20;;
3953;SDS011;1991;48.682;9.030;2024-02-23T05:13:18;4.13;;;1.60;;
3953;SDS011;1991;48.682;9.030;2024-02-23T05:15:43;4.67;;;1.63;;
3953;SDS011;1991;48.682;9.030;2024-02-23T05:18:09;3.23;;;1.33;;
3953;SDS011;1991;48.682;9.030;2024-02-23T05:20:34;1.43;;;0.60;;
3953;SDS011;1991;48.682;9.030;2024-02-23T05:23:00;1.73;;;0.63;;
3953;SDS011;1991;48.682;9.030;2024-02-23T05:25:25;1.93;;;0.40;;
3953;SDS011;1991;48.682;9.030;2024-02-23T05:27:52;0.60;;;0.40;;
3953;SDS011;1991;48.682;9.030;2024-02-23T05:30:17;1.27;;;0.43;;
3953;SDS011;1991;48.682;9.030;2024-02-23T05:32:43;2.10;;;0.60;;
3953;SDS011;1991;48.682;9.030;2024-02-23T05:35:09;1.97;;;0.33;;
3953;SDS011;1991;48.682;9.030;2024-02-23T05:37:35;1.73;;;0.50;;
3953;SDS011;1991;48.682;9.030;2024-02-23T05:40:02;3.03;;;0.83;;
3953;SDS011;1991;48.682;9.030;2024-02-23T05:42:35;3.00;;;0.73;;
3953;SDS011;1991;48.682;9.030;2024-02-23T05:45:04;1.53;;;0.50;;
3953;SDS011;1991;48.682;9.030;2024-02-23T05:47:32;2.23;;;0.40;;
3953;SDS011;1991;48.682;9.030;2024-02-23T05:49:58;1.10;;;0.30;;
3953;SDS011;1991;48.682;9.030;2024-02-23T05:52:24;1.73;;;0.30;;
3953;SDS011;1991;48.682;9.030;2024-02-23T05:54:49;2.00;;;0.40;;
3953;SDS011;1991;48.682;9.030;2024-02-23T05:57:16;3.03;;;0.67;;
3953;SDS011;1991;48.682;9.030;2024-02-23T05:59:42;2.03;;;0.53;;
3953;SDS011;1991;48.682;9.030;2024-02-23T06:02:08;2.63;;;0.90;;
3953;SDS011;1991;48.682;9.030;2024-02-23T06:04:33;2.57;;;0.60;;
3953;SDS011;1991;48.682;9.030;2024-02-23T06:06:59;2.83;;;0.50;;
3953;SDS011;1991;48.682;9.030;2024-02-23T06:09:24;2.43;;;0.43;;
3953;SDS011;1991;48.682;9.030;2024-02-23T06:11:50;1.03;;;0.43;;
3953;SDS011;1991;48.682;9.030;2024-02-23T06:14:16;1.07;;;0.47;;
3953;SDS011;1991;48.682;9.030;2024-02-23T06:16:41;1.13;;;0.30;;
3953;SDS011;1991;48.682;9.030;2024-02-23T06:19:07;3.30;;;0.43;;
3953;SDS011;1991;48.682;9.030;2024-02-23T06:21:33;4.27;;;0.93;;
3953;SDS011;1991;48.682;9.030;2024-02-23T06:23:59;1.87;;;0.53;;
3953;SDS011;1991;48.682;9.030;2024-02-23T06:26:24;3.47;;;0.60;;
3953;SDS011;1991;48.682;9.030;2024-02-23T06:28:50;3.60;;;0.60;;
3953;SDS011;1991;48.682;9.030;2024-02-23T06:31:16;1.73;;;0.60;;
3953;SDS011;1991;48.682;9.030;2024-02-23T06:33:41;3.03;;;0.63;;
3953;SDS011;1991;48.682;9.030;2024-02-23T06:36:07;3.47;;;0.53;;
3953;SDS011;1991;48.682;9.030;2024-02-23T06:38:33;3.20;;;1.00;;
3953;SDS011;1991;48.682;9.030;2024-02-23T06:40:59;1.43;;;0.70;;
3953;SDS011;1991;48.682;9.030;2024-02-23T06:43:24;1.80;;;0.40;;
3953;SDS011;1991;48.682;9.030;2024-02-23T06:45:50;1.90;;;0.50;;
3953;SDS011;1991;48.682;9.030;2024-02-23T06:48:16;1.40;;;0.70;;
3953;SDS011;1991;48.682;9.030;2024-02-23T06:50:42;2.60;;;0.77;;
3953;SDS011;1991;48.682;9.030;2024-02-23T06:53:08;1.80;;;0.70;;
3953;SDS011;1991;48.682;9.030;2024-02-23T06:55:36;2.90;;;0.53;;
3953;SDS011;1991;48.682;9.030;2024-02-23T06:58:02;2.93;;;0.60;;
3953;SDS011;1991;48.682;9.030;2024-02-23T07:00:29;1.73;;;0.50;;
3953;SDS011;1991;48.682;9.030;2024-02-23T07:02:55;0.90;;;0.60;;
3953;SDS011;1991;48.682;9.030;2024-02-23T07:05:23;2.17;;;0.63;;
3953;SDS011;1991;48.682;9.030;2024-02-23T07:07:49;2.30;;;0.50;;
3953;SDS011;1991;48.682;9.030;2024-02-23T07:10:15;2.47;;;0.50;;
3953;SDS011;1991;48.682;9.030;2024-02-23T07:12:42;1.30;;;0.50;;
3953;SDS011;1991;48.682;9.030;2024-02-23T07:15:09;2.10;;;0.60;;
3953;SDS011;1991;48.682;9.030;2024-02-23T07:17:35;2.07;;;0.50;;
3953;SDS011;1991;48.682;9.030;2024-02-23T07:20:00;3.67;;;0.70;;
3953;SDS011;1991;48.682;9.030;2024-02-23T07:22:30;2.87;;;0.50;;
3953;SDS011;1991;48.682;9.030;2024-02-23T07:24:56;2.57;;;0.73;;
3953;SDS011;1991;48.682;9.030;2024-02-23T07:27:22;2.80;;;0.60;;
3953;SDS011;1991;48.682;9.030;2024-02-23T07:29:47;4.77;;;0.77;;
3953;SDS011;1991;48.682;9.030;2024-02-23T07:32:13;2.77;;;0.70;;
3953;SDS011;1991;48.682;9.030;2024-02-23T07:34:38;4.53;;;0.40;;
3953;SDS011;1991;48.682;9.030;2024-02-23T07:37:04;3.33;;;0.67;;
3953;SDS011;1991;48.682;9.030;2024-02-23T07:39:30;8.53;;;0.77;;
3953;SDS011;1991;48.682;9.030;2024-02-23T07:41:56;2.50;;;0.50;;
3953;SDS011;1991;48.682;9.030;2024-02-23T07:44:22;3.13;;;0.50;;
3953;SDS011;1991;48.682;9.030;2024-02-23T07:46:47;1.57;;;0.60;;
3953;SDS011;1991;48.682;9.030;2024-02-23T07:49:13;2.27;;;0.80;;
3953;SDS011;1991;48.682;9.030;2024-02-23T07:51:38;4.23;;;0.63;;
3953;SDS011;1991;48.682;9.030;2024-02-23T07:54:04;2.40;;;0.60;;
3953;SDS011;1991;48.682;9.030;2024-02-23T07:56:30;2.90;;;0.57;;
3953;SDS011;1991;48.682;9.030;2024-02-23T07:58:56;4.10;;;1.07;;
3953;SDS011;1991;48.682;9.030;2024-02-23T08:01:21;3.33;;;0.60;;
3953;SDS011;1991;48.682;9.030;2024-02-23T08:03:47;2.77;;;0.50;;
3953;SDS011;1991;48.682;9.030;2024-02-23T08:06:12;4.13;;;0.63;;
3953;SDS011;1991;48.682;9.030;2024-02-23T08:08:38;2.27;;;0.50;;
3953;SDS011;1991;48.682;9.030;2024-02-23T08:11:04;3.30;;;0.60;;
3953;SDS011;1991;48.682;9.030;2024-02-23T08:13:30;2.13;;;0.70;;
3953;SDS011;1991;48.682;9.030;2024-02-23T08:15:56;3.50;;;0.50;;
3953;SDS011;1991;48.682;9.030;2024-02-23T08:18:23;1.37;;;0.40;;
3953;SDS011;1991;48.682;9.030;2024-02-23T08:20:48;2.60;;;0.63;;
3953;SDS011;1991;48.682;9.030;2024-02-23T08:23:14;4.03;;;0.50;;
3953;SDS011;1991;48.682;9.030;2024-02-23T08:25:40;3.47;;;0.73;;
3953;SDS011;1991;48.682;9.030;2024-02-23T08:28:06;3.50;;;0.60;;
3953;SDS011;1991;48.682;9.030;2024-02-23T08:30:32;1.37;;;0.50;;
3953;SDS011;1991;48.682;9.030;2024-02-23T08:32:58;4.37;;;0.70;;
3953;SDS011;1991;48.682;9.030;2024-02-23T08:35:24;2.50;;;0.47;;
3953;SDS011;1991;48.682;9.030;2024-02-23T08:37:50;3.27;;;0.90;;
3953;SDS011;1991;48.682;9.030;2024-02-23T08:40:15;1.63;;;0.37;;
3953;SDS011;1991;48.682;9.030;2024-02-23T08:42:41;3.17;;;0.87;;
3953;SDS011;1991;48.682;9.030;2024-02-23T08:45:07;4.20;;;0.53;;
3953;SDS011;1991;48.682;9.030;2024-02-23T08:47:34;2.27;;;0.67;;
3953;SDS011;1991;48.682;9.030;2024-02-23T08:50:00;2.67;;;0.70;;
3953;SDS011;1991;48.682;9.030;2024-02-23T08:52:27;3.73;;;1.03;;
3953;SDS011;1991;48.682;9.030;2024-02-23T08:54:52;3.77;;;0.50;;
3953;SDS011;1991;48.682;9.030;2024-02-23T08:57:18;3.20;;;0.50;;
3953;SDS011;1991;48.682;9.030;2024-02-23T08:59:45;1.33;;;0.70;;
3953;SDS011;1991;48.682;9.030;2024-02-23T09:02:11;4.20;;;0.77;;
3953;SDS011;1991;48.682;9.030;2024-02-23T09:04:37;2.67;;;0.70;;
3953;SDS011;1991;48.682;9.030;2024-02-23T09:07:02;5.73;;;0.73;;
3953;SDS011;1991;48.682;9.030;2024-02-23T09:09:28;4.83;;;0.80;;
3953;SDS011;1991;48.682;9.030;2024-02-23T09:11:55;3.97;;;0.83;;
3953;SDS011;1991;48.682;9.030;2024-02-23T09:14:20;3.20;;;0.80;;
3953;SDS011;1991;48.682;9.030;2024-02-23T09:16:46;5.23;;;0.73;;
3953;SDS011;1991;48.682;9.030;2024-02-23T09:19:12;1.83;;;0.67;;
3953;SDS011;1991;48.682;9.030;2024-02-23T09:21:38;5.93;;;0.60;;
3953;SDS011;1991;48.682;9.030;2024-02-23T09:24:03;3.20;;;0.80;;
3953;SDS011;1991;48.682;9.030;2024-02-23T09:26:30;3.00;;;1.10;;
3953;SDS011;1991;48.682;9.030;2024-02-23T09:28:56;6.93;;;0.90;;
3953;SDS011;1991;48.682;9.030;2024-02-23T09:31:21;4.77;;;0.70;;
3953;SDS011;1991;48.682;9.030;2024-02-23T09:33:47;2.20;;;0.40;;
3953;SDS011;1991;48.682;9.030;2024-02-23T09:36:15;3.73;;;0.63;;
3953;SDS011;1991;48.682;9.030;2024-02-23T09:38:41;2.67;;;0.73;;
3953;SDS011;1991;48.682;9.030;2024-02-23T09:41:08;4.00;;;0.80;;
3953;SDS011;1991;48.682;9.030;2024-02-23T09:43:45;2.00;;;0.80;;
3953;SDS011;1991;48.682;9.030;2024-02-23T09:46:13;1.93;;;0.60;;
3953;SDS011;1991;48.682;9.030;2024-02-23T09:48:40;1.77;;;0.60;;
3953;SDS011;1991;48.682;9.030;2024-02-23T09:51:08;3.33;;;0.60;;
3953;SDS011;1991;48.682;9.030;2024-02-23T09:53:36;3.30;;;0.67;;
3953;SDS011;1991;48.682;9.030;2024-02-23T09:56:03;3.40;;;0.70;;
3953;SDS011;1991;48.682;9.030;2024-02-23T09:58:30;2.23;;;0.53;;
3953;SDS011;1991;48.682;9.030;2024-02-23T10:00:57;2.60;;;0.80;;
3953;SDS011;1991;48.682;9.030;2024-02-23T10:03:27;3.40;;;0.87;;
3953;SDS011;1991;48.682;9.030;2024-02-23T10:05:59;1.30;;;0.60;;
3953;SDS011;1991;48.682;9.030;2024-02-23T10:08:27;2.80;;;0.70;;
3953;SDS011;1991;48.682;9.030;2024-02-23T10:10:53;2.17;;;0.63;;
3953;SDS011;1991;48.682;9.030;2024-02-23T10:13:19;3.40;;;0.77;;
3953;SDS011;1991;48.682;9.030;2024-02-23T10:15:46;3.13;;;0.80;;
3953;SDS011;1991;48.682;9.030;2024-02-23T10:18:12;4.38;;;1.27;;
3953;SDS011;1991;48.682;9.030;2024-02-23T10:20:39;1.88;;;0.63;;
3953;SDS011;1991;48.682;9.030;2024-02-23T10:23:05;4.43;;;0.60;;
3953;SDS011;1991;48.682;9.030;2024-02-23T10:25:35;3.95;;;0.60;;
3953;SDS011;1991;48.682;9.030;2024-02-23T10:28:02;3.75;;;0.88;;
3953;SDS011;1991;48.682;9.030;2024-02-23T10:30:28;2.78;;;0.70;;
3953;SDS011;1991;48.682;9.030;2024-02-23T10:32:55;3.30;;;0.75;;
3953;SDS011;1991;48.682;9.030;2024-02-23T10:35:22;3.83;;;0.80;;
3953;SDS011;1991;48.682;9.030;2024-02-23T10:37:49;3.33;;;0.80;;
3953;SDS011;1991;48.682;9.030;2024-02-23T10:40:16;3.22;;;0.85;;
3953;SDS011;1991;48.682;9.030;2024-02-23T10:42:43;2.25;;;0.77;;
3953;SDS011;1991;48.682;9.030;2024-02-23T10:45:12;4.95;;;1.23;;
3953;SDS011;1991;48.682;9.030;2024-02-23T10:47:41;1.60;;;0.77;;
3953;SDS011;1991;48.682;9.030;2024-02-23T10:50:07;4.30;;;1.00;;
3953;SDS011;1991;48.682;9.030;2024-02-23T10:52:33;2.97;;;0.88;;
3953;SDS011;1991;48.682;9.030;2024-02-23T10:55:01;3.88;;;0.80;;
3953;SDS011;1991;48.682;9.030;2024-02-23T10:57:30;3.90;;;0.73;;
3953;SDS011;1991;48.682;9.030;2024-02-23T10:59:57;5.00;;;0.70;;
3953;SDS011;1991;48.682;9.030;2024-02-23T11:02:23;4.28;;;0.75;;
3953;SDS011;1991;48.682;9.030;2024-02-23T11:04:50;3.38;;;0.68;;
3953;SDS011;1991;48.682;9.030;2024-02-23T11:07:20;2.88;;;0.77;;
3953;SDS011;1991;48.682;9.030;2024-02-23T11:09:51;4.22;;;0.65;;
3953;SDS011;1991;48.682;9.030;2024-02-23T11:12:25;3.55;;;0.77;;
3953;SDS011;1991;48.682;9.030;2024-02-23T11:14:57;3.42;;;0.90;;
3953;SDS011;1991;48.682;9.030;2024-02-23T11:17:25;2.67;;;0.70;;
3953;SDS011;1991;48.682;9.030;2024-02-23T11:19:53;5.10;;;1.00;;
3953;SDS011;1991;48.682;9.030;2024-02-23T11:25:00;5.97;;;0.80;;
3953;SDS011;1991;48.682;9.030;2024-02-23T11:27:40;3.80;;;0.80;;
3953;SDS011;1991;48.682;9.030;2024-02-23T11:30:08;2.23;;;0.73;;
3953;SDS011;1991;48.682;9.030;2024-02-23T11:35:05;6.80;;;1.00;;
3953;SDS011;1991;48.682;9.030;2024-02-23T11:37:31;4.63;;;0.73;;
3953;SDS011;1991;48.682;9.030;2024-02-23T11:39:57;5.07;;;1.03;;
3953;SDS011;1991;48.682;9.030;2024-02-23T11:42:25;5.33;;;1.00;;
3953;SDS011;1991;48.682;9.030;2024-02-23T11:44:52;5.77;;;1.43;;
3953;SDS011;1991;48.682;9.030;2024-02-23T11:47:21;2.87;;;0.70;;
3953;SDS011;1991;48.682;9.030;2024-02-23T11:49:46;3.57;;;0.73;;
3953;SDS011;1991;48.682;9.030;2024-02-23T11:52:12;3.63;;;0.90;;
3953;SDS011;1991;48.682;9.030;2024-02-23T11:54:38;2.70;;;0.77;;
3953;SDS011;1991;48.682;9.030;2024-02-23T11:57:04;7.03;;;1.10;;
3953;SDS011;1991;48.682;9.030;2024-02-23T11:59:29;4.70;;;0.77;;
3953;SDS011;1991;48.682;9.030;2024-02-23T12:01:55;3.33;;;0.60;;
3953;SDS011;1991;48.682;9.030;2024-02-23T12:04:21;5.77;;;0.80;;
3953;SDS011;1991;48.682;9.030;2024-02-23T12:06:46;4.53;;;1.00;;
3953;SDS011;1991;48.682;9.030;2024-02-23T12:09:12;3.80;;;1.10;;
3953;SDS011;1991;48.682;9.030;2024-02-23T12:11:39;3.30;;;1.07;;
3953;SDS011;1991;48.682;9.030;2024-02-23T12:14:05;3.63;;;0.73;;
3953;SDS011;1991;48.682;9.030;2024-02-23T12:16:34;4.03;;;1.30;;
3953;SDS011;1991;48.682;9.030;2024-02-23T12:19:03;6.30;;;1.03;;
3953;SDS011;1991;48.682;9.030;2024-02-23T12:21:28;5.97;;;0.97;;
3953;SDS011;1991;48.682;9.030;2024-02-23T12:23:54;6.20;;;1.00;;
3953;SDS011;1991;48.682;9.030;2024-02-23T12:26:20;4.83;;;1.43;;
3953;SDS011;1991;48.682;9.030;2024-02-23T12:28:46;4.77;;;0.80;;
3953;SDS011;1991;48.682;9.030;2024-02-23T12:31:11;8.67;;;1.10;;
3953;SDS011;1991;48.682;9.030;2024-02-23T12:33:38;3.53;;;0.83;;
3953;SDS011;1991;48.682;9.030;2024-02-23T12:36:05;6.73;;;1.17;;
3953;SDS011;1991;48.682;9.030;2024-02-23T12:38:31;3.93;;;0.77;;
3953;SDS011;1991;48.682;9.030;2024-02-23T12:40:57;4.10;;;1.00;;
3953;SDS011;1991;48.682;9.030;2024-02-23T12:43:23;2.93;;;0.90;;
3953;SDS011;1991;48.682;9.030;2024-02-23T12:45:58;6.53;;;1.13;;
3953;SDS011;1991;48.682;9.030;2024-02-23T12:48:25;3.40;;;1.07;;
3953;SDS011;1991;48.682;9.030;2024-02-23T12:50:51;5.07;;;1.10;;
3953;SDS011;1991;48.682;9.030;2024-02-23T12:56:09;8.47;;;1.10;;
3953;SDS011;1991;48.682;9.030;2024-02-23T12:58:39;7.30;;;0.93;;
3953;SDS011;1991;48.682;9.030;2024-02-23T13:01:06;6.07;;;1.10;;
3953;SDS011;1991;48.682;9.030;2024-02-23T13:03:32;7.93;;;1.03;;
3953;SDS011;1991;48.682;9.030;2024-02-23T13:05:59;4.33;;;1.10;;
3953;SDS011;1991;48.682;9.030;2024-02-23T13:08:25;4.20;;;0.80;;
3953;SDS011;1991;48.682;9.030;2024-02-23T13:10:51;6.63;;;0.93;;
3953;SDS011;1991;48.682;9.030;2024-02-23T13:13:21;5.17;;;1.43;;
3953;SDS011;1991;48.682;9.030;2024-02-23T13:15:47;4.23;;;1.07;;
3953;SDS011;1991;48.682;9.030;2024-02-23T13:18:14;4.77;;;1.57;;
3953;SDS011;1991;48.682;9.030;2024-02-23T13:20:40;4.10;;;1.27;;
3953;SDS011;1991;48.682;9.030;2024-02-23T13:23:11;4.87;;;1.60;;
3953;SDS011;1991;48.682;9.030;2024-02-23T13:25:38;10.73;;;1.53;;
3953;SDS011;1991;48.682;9.030;2024-02-23T13:28:04;7.00;;;1.30;;
3953;SDS011;1991;48.682;9.030;2024-02-23T13:30:31;4.33;;;1.20;;
3953;SDS011;1991;48.682;9.030;2024-02-23T13:32:57;5.23;;;1.10;;
3953;SDS011;1991;48.682;9.030;2024-02-23T13:35:23;2.97;;;0.90;;
3953;SDS011;1991;48.682;9.030;2024-02-23T13:37:48;4.03;;;1.00;;
3953;SDS011;1991;48.682;9.030;2024-02-23T13:40:14;2.80;;;0.90;;
3953;SDS011;1991;48.682;9.030;2024-02-23T13:42:40;3.83;;;1.10;;
3953;SDS011;1991;48.682;9.030;2024-02-23T13:45:06;6.37;;;1.10;;
3953;SDS011;1991;48.682;9.030;2024-02-23T13:47:33;4.37;;;0.90;;
3953;SDS011;1991;48.682;9.030;2024-02-23T13:50:00;9.13;;;1.20;;
3953;SDS011;1991;48.682;9.030;2024-02-23T13:52:26;6.10;;;1.10;;
3953;SDS011;1991;48.682;9.030;2024-02-23T13:54:51;3.63;;;1.33;;
3953;SDS011;1991;48.682;9.030;2024-02-23T13:57:17;3.23;;;1.00;;
3953;SDS011;1991;48.682;9.030;2024-02-23T13:59:43;2.67;;;0.80;;
3953;SDS011;1991;48.682;9.030;2024-02-23T14:02:08;5.83;;;1.37;;
3953;SDS011;1991;48.682;9.030;2024-02-23T14:04:34;4.17;;;0.90;;
3953;SDS011;1991;48.682;9.030;2024-02-23T14:07:00;6.17;;;1.27;;
3953;SDS011;1991;48.682;9.030;2024-02-23T14:09:26;7.20;;;1.27;;
3953;SDS011;1991;48.682;9.030;2024-02-23T14:11:52;5.73;;;0.97;;
3953;SDS011;1991;48.682;9.030;2024-02-23T14:14:17;6.87;;;1.33;;
3953;SDS011;1991;48.682;9.030;2024-02-23T14:16:44;4.13;;;0.80;;
3953;SDS011;1991;48.682;9.030;2024-02-23T14:19:10;3.15;;;1.05;;
3953;SDS011;1991;48.682;9.030;2024-02-23T14:21:36;4.13;;;1.10;;
3953;SDS011;1991;48.682;9.030;2024-02-23T14:24:02;7.07;;;1.33;;
3953;SDS011;1991;48.682;9.030;2024-02-23T14:26:29;2.85;;;1.00;;
3953;SDS011;1991;48.682;9.030;2024-02-23T14:28:54;4.38;;;1.02;;
3953;SDS011;1991;48.682;9.030;2024-02-23T14:31:20;3.88;;;1.10;;
3953;SDS011;1991;48.682;9.030;2024-02-23T14:33:45;4.50;;;1.10;;
3953;SDS011;1991;48.682;9.030;2024-02-23T14:36:11;5.15;;;1.30;;
3953;SDS011;1991;48.682;9.030;2024-02-23T14:38:37;5.30;;;1.35;;
3953;SDS011;1991;48.682;9.030;2024-02-23T14:41:02;7.87;;;1.20;;
3953;SDS011;1991;48.682;9.030;2024-02-23T14:43:28;5.13;;;1.00;;
3953;SDS011;1991;48.682;9.030;2024-02-23T14:45:56;3.93;;;1.23;;
3953;SDS011;1991;48.682;9.030;2024-02-23T14:48:22;5.33;;;1.03;;
3953;SDS011;1991;48.682;9.030;2024-02-23T14:50:48;5.13;;;1.00;;
3953;SDS011;1991;48.682;9.030;2024-02-23T14:53:14;6.37;;;1.07;;
3953;SDS011;1991;48.682;9.030;2024-02-23T14:55:40;6.07;;;0.97;;
3953;SDS011;1991;48.682;9.030;2024-02-23T14:58:06;4.53;;;0.80;;
3953;SDS011;1991;48.682;9.030;2024-02-23T15:00:31;3.47;;;0.93;;
3953;SDS011;1991;48.682;9.030;2024-02-23T15:02:58;6.37;;;1.00;;
3953;SDS011;1991;48.682;9.030;2024-02-23T15:05:23;6.13;;;1.20;;
3953;SDS011;1991;48.682;9.030;2024-02-23T15:07:49;5.97;;;1.20;;
3953;SDS011;1991;48.682;9.030;2024-02-23T15:10:15;7.77;;;1.70;;
3953;SDS011;1991;48.682;9.030;2024-02-23T15:12:40;5.53;;;0.80;;
3953;SDS011;1991;48.682;9.030;2024-02-23T15:15:06;7.30;;;1.13;;
3953;SDS011;1991;48.682;9.030;2024-02-23T15:17:32;5.63;;;1.30;;